sensor_id;sensor_type;location;lat;lon;timestamp;temperature;humidity
3684;DHT22;1858;48.716;9.648;2022-09-16T00:02:23;14.20;99.90
3684;DHT22;1858;48.716;9.648;2022-09-16T00:04:51;14.20;99.90
3684;DHT22;1858;48.716;9.648;2022-09-16T00:07:20;14.20;71.80
3684;DHT22;1858;48.716;9.648;2022-09-16T00:10:08;14.20;99.90
3684;DHT22;1858;48.716;9.648;2022-09-16T00:12:37;14.30;99.90
3684;DHT22;1858;48.716;9.648;2022-09-16T00:15:06;14.30;99.90
3684;DHT22;1858;48.716;9.648;2022-09-16T00:17:34;14.30;99.90
3684;DHT22;1858;48.716;9.648;2022-09-16T00:20:05;14.30;51.50
3684;DHT22;1858;48.716;9.648;2022-09-16T00:22:34;14.30;79.40
3684;DHT22;1858;48.716;9.648;2022-09-16T00:25:02;14.30;57.90
3684;DHT22;1858;48.716;9.648;2022-09-16T00:27:31;14.30;99.90
3684;DHT22;1858;48.716;9.648;2022-09-16T00:30:01;14.30;99.90
3684;DHT22;1858;48.716;9.648;2022-09-16T00:32:30;14.30;99.90
3684;DHT22;1858;48.716;9.648;2022-09-16T00:35:02;14.40;99.90
3684;DHT22;1858;48.716;9.648;2022-09-16T00:37:34;14.40;99.90
3684;DHT22;1858;48.716;9.648;2022-09-16T00:40:03;14.40;99.90
3684;DHT22;1858;48.716;9.648;2022-09-16T00:42:43;14.40;99.90
3684;DHT22;1858;48.716;9.648;2022-09-16T00:45:18;14.40;98.40
3684;DHT22;1858;48.716;9.648;2022-09-16T00:47:55;14.40;4.10
3684;DHT22;1858;48.716;9.648;2022-09-16T00:53:21;14.40;1.00
3684;DHT22;1858;48.716;9.648;2022-09-16T00:55:52;14.30;1.00
3684;DHT22;1858;48.716;9.648;2022-09-16T01:01:16;14.20;1.00
3684;DHT22;1858;48.716;9.648;2022-09-16T01:03:53;14.20;1.00
3684;DHT22;1858;48.716;9.648;2022-09-16T01:06:24;14.30;1.00
3684;DHT22;1858;48.716;9.648;2022-09-16T01:08:55;14.30;23.70
3684;DHT22;1858;48.716;9.648;2022-09-16T01:11:24;14.30;82.30
3684;DHT22;1858;48.716;9.648;2022-09-16T01:13:53;14.20;99.90
3684;DHT22;1858;48.716;9.648;2022-09-16T01:16:33;14.20;99.90
3684;DHT22;1858;48.716;9.648;2022-09-16T01:33:27;14.00;1.00
3684;DHT22;1858;48.716;9.648;2022-09-16T01:36:07;13.90;1.00
3684;DHT22;1858;48.716;9.648;2022-09-16T01:38:43;13.90;1.00
3684;DHT22;1858;48.716;9.648;2022-09-16T01:44:18;13.80;1.00
3684;DHT22;1858;48.716;9.648;2022-09-16T01:49:52;13.80;1.00
3684;DHT22;1858;48.716;9.648;2022-09-16T01:55:45;13.70;1.00
3684;DHT22;1858;48.716;9.648;2022-09-16T01:58:33;13.60;1.00
3684;DHT22;1858;48.716;9.648;2022-09-16T02:03:57;13.60;1.00
3684;DHT22;1858;48.716;9.648;2022-09-16T02:06:26;13.50;1.00
3684;DHT22;1858;48.716;9.648;2022-09-16T02:09:04;13.50;32.70
3684;DHT22;1858;48.716;9.648;2022-09-16T02:11:35;13.60;90.20
3684;DHT22;1858;48.716;9.648;2022-09-16T02:16:57;13.50;99.90
3684;DHT22;1858;48.716;9.648;2022-09-16T02:19:32;13.60;99.90
3684;DHT22;1858;48.716;9.648;2022-09-16T02:22:40;13.60;99.90
3684;DHT22;1858;48.716;9.648;2022-09-16T02:25:10;13.70;99.90
3684;DHT22;1858;48.716;9.648;2022-09-16T02:27:41;13.70;99.90
3684;DHT22;1858;48.716;9.648;2022-09-16T02:30:13;13.70;99.90
3684;DHT22;1858;48.716;9.648;2022-09-16T02:32:48;13.70;99.90
3684;DHT22;1858;48.716;9.648;2022-09-16T02:35:19;13.70;99.90
3684;DHT22;1858;48.716;9.648;2022-09-16T02:40:41;13.60;99.90
3684;DHT22;1858;48.716;9.648;2022-09-16T02:43:09;13.70;99.90
3684;DHT22;1858;48.716;9.648;2022-09-16T02:57:08;13.80;99.90
3684;DHT22;1858;48.716;9.648;2022-09-16T02:59:38;13.80;99.90
3684;DHT22;1858;48.716;9.648;2022-09-16T03:02:06;13.70;99.90
3684;DHT22;1858;48.716;9.648;2022-09-16T03:04:35;13.70;99.90
3684;DHT22;1858;48.716;9.648;2022-09-16T03:07:05;13.70;99.90
3684;DHT22;1858;48.716;9.648;2022-09-16T03:09:38;13.80;99.90
3684;DHT22;1858;48.716;9.648;2022-09-16T03:15:26;13.80;99.90
3684;DHT22;1858;48.716;9.648;2022-09-16T03:20:41;13.70;62.10
3684;DHT22;1858;48.716;9.648;2022-09-16T03:28:58;13.70;90.50
3684;DHT22;1858;48.716;9.648;2022-09-16T03:31:30;13.70;99.90
3684;DHT22;1858;48.716;9.648;2022-09-16T03:34:13;13.70;99.90
3684;DHT22;1858;48.716;9.648;2022-09-16T03:36:39;13.80;99.90
3684;DHT22;1858;48.716;9.648;2022-09-16T03:39:09;13.80;99.90
3684;DHT22;1858;48.716;9.648;2022-09-16T03:41:38;13.90;99.90
3684;DHT22;1858;48.716;9.648;2022-09-16T03:44:07;14.00;99.90
3684;DHT22;1858;48.716;9.648;2022-09-16T03:46:35;14.10;99.90
3684;DHT22;1858;48.716;9.648;2022-09-16T03:49:04;14.10;1.00
3684;DHT22;1858;48.716;9.648;2022-09-16T03:51:32;14.10;1.00
3684;DHT22;1858;48.716;9.648;2022-09-16T03:54:01;14.20;1.00
3684;DHT22;1858;48.716;9.648;2022-09-16T03:56:29;14.20;1.00
3684;DHT22;1858;48.716;9.648;2022-09-16T03:58:57;14.20;1.00
3684;DHT22;1858;48.716;9.648;2022-09-16T04:01:26;14.20;1.00
3684;DHT22;1858;48.716;9.648;2022-09-16T04:03:55;14.20;1.00
3684;DHT22;1858;48.716;9.648;2022-09-16T04:06:23;14.30;2.20
3684;DHT22;1858;48.716;9.648;2022-09-16T04:08:52;14.30;1.00
3684;DHT22;1858;48.716;9.648;2022-09-16T04:11:20;14.40;1.00
3684;DHT22;1858;48.716;9.648;2022-09-16T04:13:48;14.30;1.00
3684;DHT22;1858;48.716;9.648;2022-09-16T04:19:11;14.30;1.00
3684;DHT22;1858;48.716;9.648;2022-09-16T04:21:40;14.30;1.00
3684;DHT22;1858;48.716;9.648;2022-09-16T04:24:09;14.30;1.00
3684;DHT22;1858;48.716;9.648;2022-09-16T04:26:37;14.40;1.00
3684;DHT22;1858;48.716;9.648;2022-09-16T04:29:06;14.30;1.00
3684;DHT22;1858;48.716;9.648;2022-09-16T04:31:34;14.40;1.00
3684;DHT22;1858;48.716;9.648;2022-09-16T04:34:03;14.40;1.00
3684;DHT22;1858;48.716;9.648;2022-09-16T04:36:31;14.30;1.00
3684;DHT22;1858;48.716;9.648;2022-09-16T04:39:19;14.40;1.00
3684;DHT22;1858;48.716;9.648;2022-09-16T04:41:48;14.30;1.00
3684;DHT22;1858;48.716;9.648;2022-09-16T04:44:16;14.40;1.00
3684;DHT22;1858;48.716;9.648;2022-09-16T04:46:45;14.30;1.00
3684;DHT22;1858;48.716;9.648;2022-09-16T04:49:14;14.30;1.00
3684;DHT22;1858;48.716;9.648;2022-09-16T04:51:43;14.30;1.00
3684;DHT22;1858;48.716;9.648;2022-09-16T04:54:11;14.30;1.00
3684;DHT22;1858;48.716;9.648;2022-09-16T04:56:39;14.40;1.00
3684;DHT22;1858;48.716;9.648;2022-09-16T04:59:09;14.40;1.00
3684;DHT22;1858;48.716;9.648;2022-09-16T05:01:38;14.40;1.00
3684;DHT22;1858;48.716;9.648;2022-09-16T05:04:09;14.40;1.00
3684;DHT22;1858;48.716;9.648;2022-09-16T05:06:39;14.50;1.00
3684;DHT22;1858;48.716;9.648;2022-09-16T05:09:10;14.50;1.00
3684;DHT22;1858;48.716;9.648;2022-09-16T05:11:40;14.50;1.00
3684;DHT22;1858;48.716;9.648;2022-09-16T05:14:12;14.50;1.00
3684;DHT22;1858;48.716;9.648;2022-09-16T05:16:40;14.50;1.00
3684;DHT22;1858;48.716;9.648;2022-09-16T05:19:10;14.50;1.00
3684;DHT22;1858;48.716;9.648;2022-09-16T05:21:39;14.50;1.00
3684;DHT22;1858;48.716;9.648;2022-09-16T05:24:10;14.50;1.00
3684;DHT22;1858;48.716;9.648;2022-09-16T05:26:40;14.60;1.00
3684;DHT22;1858;48.716;9.648;2022-09-16T05:29:14;14.60;1.00
3684;DHT22;1858;48.716;9.648;2022-09-16T05:31:44;14.50;1.00
3684;DHT22;1858;48.716;9.648;2022-09-16T05:37:06;14.60;1.00
3684;DHT22;1858;48.716;9.648;2022-09-16T05:39:34;14.60;1.00
3684;DHT22;1858;48.716;9.648;2022-09-16T05:42:03;14.60;1.00
3684;DHT22;1858;48.716;9.648;2022-09-16T05:44:31;14.60;1.00
3684;DHT22;1858;48.716;9.648;2022-09-16T05:47:00;14.60;1.00
3684;DHT22;1858;48.716;9.648;2022-09-16T05:49:48;14.60;1.00
3684;DHT22;1858;48.716;9.648;2022-09-16T05:52:16;14.60;1.00
3684;DHT22;1858;48.716;9.648;2022-09-16T05:54:45;14.60;5.40
3684;DHT22;1858;48.716;9.648;2022-09-16T05:57:13;14.60;21.40
3684;DHT22;1858;48.716;9.648;2022-09-16T05:59:42;14.60;1.00
3684;DHT22;1858;48.716;9.648;2022-09-16T06:02:10;14.70;1.00
3684;DHT22;1858;48.716;9.648;2022-09-16T06:04:39;14.70;1.00
3684;DHT22;1858;48.716;9.648;2022-09-16T06:07:08;14.70;1.00
3684;DHT22;1858;48.716;9.648;2022-09-16T06:09:37;14.70;1.00
3684;DHT22;1858;48.716;9.648;2022-09-16T06:12:05;14.70;1.00
3684;DHT22;1858;48.716;9.648;2022-09-16T06:14:34;14.80;1.00
3684;DHT22;1858;48.716;9.648;2022-09-16T06:17:02;14.80;1.00
3684;DHT22;1858;48.716;9.648;2022-09-16T06:19:31;14.90;1.00
3684;DHT22;1858;48.716;9.648;2022-09-16T06:22:19;15.00;1.00
3684;DHT22;1858;48.716;9.648;2022-09-16T06:24:47;15.10;1.00
3684;DHT22;1858;48.716;9.648;2022-09-16T06:27:16;15.20;1.00
3684;DHT22;1858;48.716;9.648;2022-09-16T06:29:44;15.20;1.00
3684;DHT22;1858;48.716;9.648;2022-09-16T06:32:13;15.20;1.00
3684;DHT22;1858;48.716;9.648;2022-09-16T06:34:41;15.30;1.00
3684;DHT22;1858;48.716;9.648;2022-09-16T06:37:10;15.30;1.00
3684;DHT22;1858;48.716;9.648;2022-09-16T06:39:39;15.40;1.00
3684;DHT22;1858;48.716;9.648;2022-09-16T06:42:08;15.40;1.00
3684;DHT22;1858;48.716;9.648;2022-09-16T06:44:37;15.40;1.00
3684;DHT22;1858;48.716;9.648;2022-09-16T06:47:05;15.30;99.90
3684;DHT22;1858;48.716;9.648;2022-09-16T06:49:34;15.20;99.90
3684;DHT22;1858;48.716;9.648;2022-09-16T06:52:02;15.30;1.00
3684;DHT22;1858;48.716;9.648;2022-09-16T06:54:32;15.30;99.90
3684;DHT22;1858;48.716;9.648;2022-09-16T06:57:00;15.30;99.90
3684;DHT22;1858;48.716;9.648;2022-09-16T06:59:30;15.30;99.90
3684;DHT22;1858;48.716;9.648;2022-09-16T07:02:00;15.20;99.90
3684;DHT22;1858;48.716;9.648;2022-09-16T07:04:29;15.00;85.20
3684;DHT22;1858;48.716;9.648;2022-09-16T07:06:57;15.00;33.60
3684;DHT22;1858;48.716;9.648;2022-09-16T07:09:26;14.90;8.30
3684;DHT22;1858;48.716;9.648;2022-09-16T07:11:55;14.90;1.00
3684;DHT22;1858;48.716;9.648;2022-09-16T07:14:26;14.80;1.00
3684;DHT22;1858;48.716;9.648;2022-09-16T07:16:55;14.70;1.00
3684;DHT22;1858;48.716;9.648;2022-09-16T07:19:24;14.80;47.30
3684;DHT22;1858;48.716;9.648;2022-09-16T07:21:53;14.80;85.60
3684;DHT22;1858;48.716;9.648;2022-09-16T07:24:22;14.80;54.80
3684;DHT22;1858;48.716;9.648;2022-09-16T07:26:51;14.90;76.40
3684;DHT22;1858;48.716;9.648;2022-09-16T07:29:19;14.80;1.00
3684;DHT22;1858;48.716;9.648;2022-09-16T07:31:48;14.80;1.00
3684;DHT22;1858;48.716;9.648;2022-09-16T07:34:17;14.70;1.00
3684;DHT22;1858;48.716;9.648;2022-09-16T07:36:47;14.60;1.00
3684;DHT22;1858;48.716;9.648;2022-09-16T07:39:17;14.70;1.00
3684;DHT22;1858;48.716;9.648;2022-09-16T07:41:47;14.70;1.00
3684;DHT22;1858;48.716;9.648;2022-09-16T07:47:05;14.80;1.00
3684;DHT22;1858;48.716;9.648;2022-09-16T07:49:33;14.80;1.00
3684;DHT22;1858;48.716;9.648;2022-09-16T07:52:02;14.80;1.00
3684;DHT22;1858;48.716;9.648;2022-09-16T07:54:30;14.80;1.00
3684;DHT22;1858;48.716;9.648;2022-09-16T07:56:59;14.90;1.00
3684;DHT22;1858;48.716;9.648;2022-09-16T07:59:28;14.80;1.00
3684;DHT22;1858;48.716;9.648;2022-09-16T08:01:56;14.80;1.00
3684;DHT22;1858;48.716;9.648;2022-09-16T08:04:44;14.70;1.00
3684;DHT22;1858;48.716;9.648;2022-09-16T08:07:13;14.80;1.00
3684;DHT22;1858;48.716;9.648;2022-09-16T08:10:01;14.90;48.20
3684;DHT22;1858;48.716;9.648;2022-09-16T08:12:29;15.00;29.70
3684;DHT22;1858;48.716;9.648;2022-09-16T08:14:59;15.10;18.20
3684;DHT22;1858;48.716;9.648;2022-09-16T08:17:28;15.20;1.00
3684;DHT22;1858;48.716;9.648;2022-09-16T08:19:56;15.20;1.00
3684;DHT22;1858;48.716;9.648;2022-09-16T08:22:25;15.00;1.00
3684;DHT22;1858;48.716;9.648;2022-09-16T08:24:53;15.00;1.00
3684;DHT22;1858;48.716;9.648;2022-09-16T08:27:22;14.90;1.00
3684;DHT22;1858;48.716;9.648;2022-09-16T08:29:50;15.00;1.00
3684;DHT22;1858;48.716;9.648;2022-09-16T08:32:19;15.00;1.00
3684;DHT22;1858;48.716;9.648;2022-09-16T08:34:47;15.10;1.00
3684;DHT22;1858;48.716;9.648;2022-09-16T08:37:15;15.10;1.00
3684;DHT22;1858;48.716;9.648;2022-09-16T08:39:45;15.20;1.00
3684;DHT22;1858;48.716;9.648;2022-09-16T08:42:53;15.30;1.00
3684;DHT22;1858;48.716;9.648;2022-09-16T08:45:53;15.50;1.00
3684;DHT22;1858;48.716;9.648;2022-09-16T08:48:26;15.50;1.00
3684;DHT22;1858;48.716;9.648;2022-09-16T08:51:14;15.60;1.00
3684;DHT22;1858;48.716;9.648;2022-09-16T08:53:46;15.70;1.00
3684;DHT22;1858;48.716;9.648;2022-09-16T08:56:18;15.60;1.00
3684;DHT22;1858;48.716;9.648;2022-09-16T08:58:48;15.50;1.00
3684;DHT22;1858;48.716;9.648;2022-09-16T09:01:35;15.70;1.00
3684;DHT22;1858;48.716;9.648;2022-09-16T09:04:04;16.00;1.00
3684;DHT22;1858;48.716;9.648;2022-09-16T09:12:33;16.50;99.90
3684;DHT22;1858;48.716;9.648;2022-09-16T09:26:55;16.40;99.90
3684;DHT22;1858;48.716;9.648;2022-09-16T09:29:32;16.30;99.90
3684;DHT22;1858;48.716;9.648;2022-09-16T09:40:38;16.10;99.90
3684;DHT22;1858;48.716;9.648;2022-09-16T09:43:13;16.10;99.90
3684;DHT22;1858;48.716;9.648;2022-09-16T09:46:16;16.10;1.00
3684;DHT22;1858;48.716;9.648;2022-09-16T09:54:36;16.40;1.00
3684;DHT22;1858;48.716;9.648;2022-09-16T10:00:11;16.80;99.90
3684;DHT22;1858;48.716;9.648;2022-09-16T10:02:43;16.90;99.90
3684;DHT22;1858;48.716;9.648;2022-09-16T10:10:59;17.20;99.90
3684;DHT22;1858;48.716;9.648;2022-09-16T10:13:29;17.30;99.90
3684;DHT22;1858;48.716;9.648;2022-09-16T10:16:15;17.40;99.90
3684;DHT22;1858;48.716;9.648;2022-09-16T10:18:42;17.50;99.90
3684;DHT22;1858;48.716;9.648;2022-09-16T10:21:14;17.60;99.90
3684;DHT22;1858;48.716;9.648;2022-09-16T10:23:54;17.60;99.90
3684;DHT22;1858;48.716;9.648;2022-09-16T10:29:17;17.70;99.90
3684;DHT22;1858;48.716;9.648;2022-09-16T10:31:48;17.90;99.90
3684;DHT22;1858;48.716;9.648;2022-09-16T10:37:26;17.80;99.90
3684;DHT22;1858;48.716;9.648;2022-09-16T10:39:55;17.80;99.90
3684;DHT22;1858;48.716;9.648;2022-09-16T10:42:26;17.80;99.90
3684;DHT22;1858;48.716;9.648;2022-09-16T10:45:07;17.70;99.90
3684;DHT22;1858;48.716;9.648;2022-09-16T10:47:33;17.70;99.90
3684;DHT22;1858;48.716;9.648;2022-09-16T10:50:04;17.50;99.90
3684;DHT22;1858;48.716;9.648;2022-09-16T10:52:44;17.70;99.90
3684;DHT22;1858;48.716;9.648;2022-09-16T10:58:06;18.00;99.90
3684;DHT22;1858;48.716;9.648;2022-09-16T11:00:28;18.40;99.90
3684;DHT22;1858;48.716;9.648;2022-09-16T11:06:02;18.90;99.90
3684;DHT22;1858;48.716;9.648;2022-09-16T11:19:49;19.40;1.00
3684;DHT22;1858;48.716;9.648;2022-09-16T11:31:21;19.40;1.00
3684;DHT22;1858;48.716;9.648;2022-09-16T11:34:34;19.40;1.00
3684;DHT22;1858;48.716;9.648;2022-09-16T11:43:14;19.50;1.00
3684;DHT22;1858;48.716;9.648;2022-09-16T11:46:06;19.50;1.00
3684;DHT22;1858;48.716;9.648;2022-09-16T11:54:44;19.40;1.00
3684;DHT22;1858;48.716;9.648;2022-09-16T11:57:15;19.40;1.00
3684;DHT22;1858;48.716;9.648;2022-09-16T12:02:44;19.30;1.00
3684;DHT22;1858;48.716;9.648;2022-09-16T12:07:54;19.20;1.00
3684;DHT22;1858;48.716;9.648;2022-09-16T12:10:31;19.20;1.00
3684;DHT22;1858;48.716;9.648;2022-09-16T12:13:03;19.10;1.00
3684;DHT22;1858;48.716;9.648;2022-09-16T12:15:57;18.90;1.00
3684;DHT22;1858;48.716;9.648;2022-09-16T12:21:36;18.60;1.00
3684;DHT22;1858;48.716;9.648;2022-09-16T12:24:25;18.50;1.00
3684;DHT22;1858;48.716;9.648;2022-09-16T12:29:43;18.40;1.00
3684;DHT22;1858;48.716;9.648;2022-09-16T12:32:14;18.60;1.00
3684;DHT22;1858;48.716;9.648;2022-09-16T12:34:53;18.70;1.00
3684;DHT22;1858;48.716;9.648;2022-09-16T12:40:21;19.00;1.00
3684;DHT22;1858;48.716;9.648;2022-09-16T12:48:26;19.30;1.00
3684;DHT22;1858;48.716;9.648;2022-09-16T12:51:07;19.20;1.00
3684;DHT22;1858;48.716;9.648;2022-09-16T13:04:49;18.50;1.00
3684;DHT22;1858;48.716;9.648;2022-09-16T13:08:01;18.70;1.00
3684;DHT22;1858;48.716;9.648;2022-09-16T13:13:23;19.00;1.00
3684;DHT22;1858;48.716;9.648;2022-09-16T13:15:55;19.10;1.00
3684;DHT22;1858;48.716;9.648;2022-09-16T13:24:37;19.30;1.00
3684;DHT22;1858;48.716;9.648;2022-09-16T13:27:32;19.30;1.00
3684;DHT22;1858;48.716;9.648;2022-09-16T13:30:12;19.20;1.00
3684;DHT22;1858;48.716;9.648;2022-09-16T13:35:36;19.10;1.00
3684;DHT22;1858;48.716;9.648;2022-09-16T13:40:59;19.20;1.00
3684;DHT22;1858;48.716;9.648;2022-09-16T13:46:11;19.30;1.00
3684;DHT22;1858;48.716;9.648;2022-09-16T13:48:52;19.30;1.00
3684;DHT22;1858;48.716;9.648;2022-09-16T13:51:22;19.30;1.00
3684;DHT22;1858;48.716;9.648;2022-09-16T13:53:51;19.10;1.00
3684;DHT22;1858;48.716;9.648;2022-09-16T13:56:33;19.00;1.00
3684;DHT22;1858;48.716;9.648;2022-09-16T14:00:17;19.00;1.00
3684;DHT22;1858;48.716;9.648;2022-09-16T14:07:41;18.60;1.00
3684;DHT22;1858;48.716;9.648;2022-09-16T14:13:11;18.60;1.00
3684;DHT22;1858;48.716;9.648;2022-09-16T14:18:33;18.30;1.00
3684;DHT22;1858;48.716;9.648;2022-09-16T14:21:04;18.20;1.00
3684;DHT22;1858;48.716;9.648;2022-09-16T14:23:34;18.10;1.00
3684;DHT22;1858;48.716;9.648;2022-09-16T14:26:19;18.10;1.00
3684;DHT22;1858;48.716;9.648;2022-09-16T14:29:09;17.90;1.00
3684;DHT22;1858;48.716;9.648;2022-09-16T14:31:38;18.00;1.00
3684;DHT22;1858;48.716;9.648;2022-09-16T14:34:12;18.00;1.00
3684;DHT22;1858;48.716;9.648;2022-09-16T14:36:40;18.00;1.00
3684;DHT22;1858;48.716;9.648;2022-09-16T14:39:15;18.00;1.00
3684;DHT22;1858;48.716;9.648;2022-09-16T14:41:47;18.10;1.00
3684;DHT22;1858;48.716;9.648;2022-09-16T14:44:23;18.20;1.00
3684;DHT22;1858;48.716;9.648;2022-09-16T14:49:46;18.40;1.00
3684;DHT22;1858;48.716;9.648;2022-09-16T14:52:23;18.40;1.00
3684;DHT22;1858;48.716;9.648;2022-09-16T14:54:47;18.30;1.00
3684;DHT22;1858;48.716;9.648;2022-09-16T14:57:19;18.30;1.00
3684;DHT22;1858;48.716;9.648;2022-09-16T14:59:53;18.20;1.00
3684;DHT22;1858;48.716;9.648;2022-09-16T15:02:46;18.00;1.00
3684;DHT22;1858;48.716;9.648;2022-09-16T15:05:34;17.90;1.00
3684;DHT22;1858;48.716;9.648;2022-09-16T15:08:06;17.80;1.00
3684;DHT22;1858;48.716;9.648;2022-09-16T15:10:33;17.60;1.00
3684;DHT22;1858;48.716;9.648;2022-09-16T15:13:10;17.50;1.00
3684;DHT22;1858;48.716;9.648;2022-09-16T15:18:33;17.30;1.00
3684;DHT22;1858;48.716;9.648;2022-09-16T15:23:55;17.30;1.00
3684;DHT22;1858;48.716;9.648;2022-09-16T15:26:39;17.30;1.00
3684;DHT22;1858;48.716;9.648;2022-09-16T15:29:02;17.30;1.00
3684;DHT22;1858;48.716;9.648;2022-09-16T15:31:38;17.30;1.00
3684;DHT22;1858;48.716;9.648;2022-09-16T15:34:21;17.50;1.00
3684;DHT22;1858;48.716;9.648;2022-09-16T15:39:54;17.50;1.00
3684;DHT22;1858;48.716;9.648;2022-09-16T15:42:23;17.50;1.00
3684;DHT22;1858;48.716;9.648;2022-09-16T15:44:56;17.50;1.00
3684;DHT22;1858;48.716;9.648;2022-09-16T15:47:33;17.60;1.00
3684;DHT22;1858;48.716;9.648;2022-09-16T15:50:09;17.60;1.00
3684;DHT22;1858;48.716;9.648;2022-09-16T15:55:36;17.30;1.00
3684;DHT22;1858;48.716;9.648;2022-09-16T16:01:03;17.40;1.00
3684;DHT22;1858;48.716;9.648;2022-09-16T16:03:44;17.40;1.00
3684;DHT22;1858;48.716;9.648;2022-09-16T16:06:06;17.40;1.00
3684;DHT22;1858;48.716;9.648;2022-09-16T16:08:47;17.40;1.00
3684;DHT22;1858;48.716;9.648;2022-09-16T16:11:17;17.40;1.00
3684;DHT22;1858;48.716;9.648;2022-09-16T16:13:46;17.40;1.00
3684;DHT22;1858;48.716;9.648;2022-09-16T16:16:17;17.40;1.00
3684;DHT22;1858;48.716;9.648;2022-09-16T16:18:46;17.40;1.00
3684;DHT22;1858;48.716;9.648;2022-09-16T16:21:15;17.40;1.00
3684;DHT22;1858;48.716;9.648;2022-09-16T16:23:44;17.30;1.00
3684;DHT22;1858;48.716;9.648;2022-09-16T16:26:12;17.30;1.00
3684;DHT22;1858;48.716;9.648;2022-09-16T16:28:41;17.30;1.00
3684;DHT22;1858;48.716;9.648;2022-09-16T16:31:14;17.40;1.00
3684;DHT22;1858;48.716;9.648;2022-09-16T16:33:44;17.40;1.00
3684;DHT22;1858;48.716;9.648;2022-09-16T16:36:15;17.30;1.00
3684;DHT22;1858;48.716;9.648;2022-09-16T16:38:44;17.30;1.00
3684;DHT22;1858;48.716;9.648;2022-09-16T16:41:21;17.20;1.00
3684;DHT22;1858;48.716;9.648;2022-09-16T16:43:50;17.10;1.00
3684;DHT22;1858;48.716;9.648;2022-09-16T16:46:18;17.00;1.00
3684;DHT22;1858;48.716;9.648;2022-09-16T16:48:47;16.90;1.00
3684;DHT22;1858;48.716;9.648;2022-09-16T16:51:16;16.80;1.00
3684;DHT22;1858;48.716;9.648;2022-09-16T16:53:46;16.60;1.00
3684;DHT22;1858;48.716;9.648;2022-09-16T16:56:15;16.50;1.00
3684;DHT22;1858;48.716;9.648;2022-09-16T16:58:44;16.40;1.00
3684;DHT22;1858;48.716;9.648;2022-09-16T17:01:14;16.20;1.00
3684;DHT22;1858;48.716;9.648;2022-09-16T17:03:49;16.20;1.00
3684;DHT22;1858;48.716;9.648;2022-09-16T17:06:18;16.20;1.00
3684;DHT22;1858;48.716;9.648;2022-09-16T17:08:46;16.10;1.00
3684;DHT22;1858;48.716;9.648;2022-09-16T17:11:17;16.00;1.00
3684;DHT22;1858;48.716;9.648;2022-09-16T17:13:49;16.00;1.00
3684;DHT22;1858;48.716;9.648;2022-09-16T17:16:37;16.00;1.00
3684;DHT22;1858;48.716;9.648;2022-09-16T17:19:05;15.90;1.00
3684;DHT22;1858;48.716;9.648;2022-09-16T17:21:35;15.90;1.00
3684;DHT22;1858;48.716;9.648;2022-09-16T17:24:23;15.80;1.00
3684;DHT22;1858;48.716;9.648;2022-09-16T17:26:51;15.80;1.00
3684;DHT22;1858;48.716;9.648;2022-09-16T17:29:20;15.80;1.00
3684;DHT22;1858;48.716;9.648;2022-09-16T17:31:48;15.80;1.00
3684;DHT22;1858;48.716;9.648;2022-09-16T17:34:17;15.90;1.00
3684;DHT22;1858;48.716;9.648;2022-09-16T17:36:46;15.80;1.00
3684;DHT22;1858;48.716;9.648;2022-09-16T17:39:17;15.80;1.00
3684;DHT22;1858;48.716;9.648;2022-09-16T17:41:53;15.80;1.00
3684;DHT22;1858;48.716;9.648;2022-09-16T17:44:23;15.80;1.00
3684;DHT22;1858;48.716;9.648;2022-09-16T17:46:51;15.70;1.00
3684;DHT22;1858;48.716;9.648;2022-09-16T17:49:21;15.70;1.00
3684;DHT22;1858;48.716;9.648;2022-09-16T17:51:51;15.70;1.00
3684;DHT22;1858;48.716;9.648;2022-09-16T17:54:21;15.60;1.00
3684;DHT22;1858;48.716;9.648;2022-09-16T17:56:50;15.60;1.00
3684;DHT22;1858;48.716;9.648;2022-09-16T17:59:21;15.50;1.00
3684;DHT22;1858;48.716;9.648;2022-09-16T18:01:51;15.50;1.00
3684;DHT22;1858;48.716;9.648;2022-09-16T18:04:19;15.40;1.00
3684;DHT22;1858;48.716;9.648;2022-09-16T18:06:48;15.30;1.00
3684;DHT22;1858;48.716;9.648;2022-09-16T18:09:17;15.20;1.00
3684;DHT22;1858;48.716;9.648;2022-09-16T18:11:45;15.10;1.00
3684;DHT22;1858;48.716;9.648;2022-09-16T18:14:14;14.90;1.00
3684;DHT22;1858;48.716;9.648;2022-09-16T18:16:42;14.80;1.00
3684;DHT22;1858;48.716;9.648;2022-09-16T18:19:20;14.60;1.00
3684;DHT22;1858;48.716;9.648;2022-09-16T18:21:51;14.50;9.90
3684;DHT22;1858;48.716;9.648;2022-09-16T18:24:20;14.30;70.60
3684;DHT22;1858;48.716;9.648;2022-09-16T18:26:48;14.10;99.90
3684;DHT22;1858;48.716;9.648;2022-09-16T18:29:17;14.20;99.90
3684;DHT22;1858;48.716;9.648;2022-09-16T18:31:47;14.00;99.90
3684;DHT22;1858;48.716;9.648;2022-09-16T18:34:16;13.90;99.90
3684;DHT22;1858;48.716;9.648;2022-09-16T18:36:44;13.80;99.90
3684;DHT22;1858;48.716;9.648;2022-09-16T18:39:14;13.70;99.90
3684;DHT22;1858;48.716;9.648;2022-09-16T18:41:46;13.70;99.90
3684;DHT22;1858;48.716;9.648;2022-09-16T18:44:19;13.60;99.90
3684;DHT22;1858;48.716;9.648;2022-09-16T18:47:07;13.50;1.00
3684;DHT22;1858;48.716;9.648;2022-09-16T18:49:35;13.50;1.00
3684;DHT22;1858;48.716;9.648;2022-09-16T18:52:04;13.60;1.00
3684;DHT22;1858;48.716;9.648;2022-09-16T18:54:51;13.70;1.00
3684;DHT22;1858;48.716;9.648;2022-09-16T18:57:20;13.70;1.00
3684;DHT22;1858;48.716;9.648;2022-09-16T18:59:50;13.70;1.00
3684;DHT22;1858;48.716;9.648;2022-09-16T19:02:19;13.70;1.00
3684;DHT22;1858;48.716;9.648;2022-09-16T19:04:47;13.70;1.00
3684;DHT22;1858;48.716;9.648;2022-09-16T19:07:15;13.60;1.00
3684;DHT22;1858;48.716;9.648;2022-09-16T19:09:45;13.70;1.00
3684;DHT22;1858;48.716;9.648;2022-09-16T19:12:14;13.70;1.00
3684;DHT22;1858;48.716;9.648;2022-09-16T19:14:43;13.80;1.00
3684;DHT22;1858;48.716;9.648;2022-09-16T19:17:11;13.70;1.00
3684;DHT22;1858;48.716;9.648;2022-09-16T19:19:39;13.80;1.00
3684;DHT22;1858;48.716;9.648;2022-09-16T19:22:08;13.80;1.00
3684;DHT22;1858;48.716;9.648;2022-09-16T19:24:36;13.80;1.00
3684;DHT22;1858;48.716;9.648;2022-09-16T19:27:04;13.80;1.00
3684;DHT22;1858;48.716;9.648;2022-09-16T19:29:33;13.70;1.00
3684;DHT22;1858;48.716;9.648;2022-09-16T19:32:01;13.70;1.00
3684;DHT22;1858;48.716;9.648;2022-09-16T19:34:30;13.70;1.00
3684;DHT22;1858;48.716;9.648;2022-09-16T19:36:58;13.80;1.00
3684;DHT22;1858;48.716;9.648;2022-09-16T19:39:26;13.80;1.00
3684;DHT22;1858;48.716;9.648;2022-09-16T19:42:15;13.70;1.00
3684;DHT22;1858;48.716;9.648;2022-09-16T19:44:43;13.60;1.00
3684;DHT22;1858;48.716;9.648;2022-09-16T19:47:11;13.50;1.00
3684;DHT22;1858;48.716;9.648;2022-09-16T19:49:40;13.40;1.00
3684;DHT22;1858;48.716;9.648;2022-09-16T19:52:09;13.30;1.00
3684;DHT22;1858;48.716;9.648;2022-09-16T19:54:37;13.30;1.00
3684;DHT22;1858;48.716;9.648;2022-09-16T19:57:06;13.20;1.00
3684;DHT22;1858;48.716;9.648;2022-09-16T19:59:34;13.10;1.00
3684;DHT22;1858;48.716;9.648;2022-09-16T20:02:02;13.10;72.10
3684;DHT22;1858;48.716;9.648;2022-09-16T20:04:52;13.10;72.10
3684;DHT22;1858;48.716;9.648;2022-09-16T20:07:21;13.00;99.90
3684;DHT22;1858;48.716;9.648;2022-09-16T20:09:50;12.90;99.90
3684;DHT22;1858;48.716;9.648;2022-09-16T20:12:18;12.80;99.90
3684;DHT22;1858;48.716;9.648;2022-09-16T20:15:06;12.70;99.90
3684;DHT22;1858;48.716;9.648;2022-09-16T20:17:34;12.70;99.90
3684;DHT22;1858;48.716;9.648;2022-09-16T20:20:05;12.60;99.90
3684;DHT22;1858;48.716;9.648;2022-09-16T20:22:35;12.50;99.90
3684;DHT22;1858;48.716;9.648;2022-09-16T20:25:22;12.60;99.90
3684;DHT22;1858;48.716;9.648;2022-09-16T20:27:51;12.50;99.90
3684;DHT22;1858;48.716;9.648;2022-09-16T20:30:20;12.60;99.90
3684;DHT22;1858;48.716;9.648;2022-09-16T20:32:48;12.70;99.90
3684;DHT22;1858;48.716;9.648;2022-09-16T20:35:16;12.70;99.90
3684;DHT22;1858;48.716;9.648;2022-09-16T20:37:45;12.70;99.90